Latest Weather Observations for Coles Point

IDS60801

Issued at 5:31 am CST Monday 25 July 2016 (issued every 30 minutes, with the page automatically refreshed every 10 minutes)

About weather observations | Map of weather stations | Latest weather observations for SA | Other Formats
Station Details ID: 018191 Name: COLES POINT Lat: -34.37 Lon: 135.37 Height: 28.0 m
Data from the previous 72 hours. | See also: Recent months at Coles Point
Date/Time
CST
Temp
°C
App
Temp
°C
Dew
Point
°C
Rel
Hum
%
Delta-T
°C
Wind Press
QNH
hPa
Press
MSL
hPa
Rain since
9am
mm
Dir  Spd
km/h
Gust
km/h
Spd
kts
Gust
kts
25/05:30am 12.3 6.5 8.0 75 2.1 W 28 39 15 21 1015.9 1016.0 0.8
25/05:00am 11.9 6.5 7.8 76 2.0 WNW 26 37 14 20 1015.8 1015.9 0.8
25/04:30am 12.4 7.6 7.5 72 2.4 W 22 33 12 18 1016.1 1016.2 0.8
25/04:00am 12.7 6.6 6.7 67 2.9 W 28 39 15 21 1016.4 1016.5 0.8
25/03:30am 12.3 6.2 6.4 67 2.8 W 28 39 15 21 1016.5 1016.6 0.8
25/03:00am 12.3 6.6 6.6 68 2.7 W 26 37 14 20 1016.6 1016.7 0.8
25/02:30am 12.4 6.7 6.9 69 2.6 W 26 35 14 19 1016.7 1016.8 0.8
25/02:00am 12.2 6.1 6.5 68 2.7 WSW 28 35 15 19 1016.8 1016.9 0.8
25/01:30am 12.0 6.3 6.7 70 2.5 WSW 26 33 14 18 1016.8 1016.9 0.8
25/01:00am 12.0 5.8 6.1 67 2.8 WSW 28 37 15 20 1017.0 1017.1 0.8
25/12:30am 12.1 5.0 5.5 64 3.1 WSW 32 39 17 21 1017.2 1017.3 0.8
25/12:00am 11.8 5.5 5.9 67 2.8 WSW 28 37 15 20 1017.4 1017.5 0.8
 
Date/Time
CST
Temp
°C
App
Temp
°C
Dew
Point
°C
Rel
Hum
%
Delta-T
°C
Wind Press
QNH
hPa
Press
MSL
hPa
Rain since
9am
mm
Dir  Spd
km/h
Gust
km/h
Spd
kts
Gust
kts
24/11:30pm 11.9 4.9 6.0 67 2.8 WSW 32 41 17 22 1017.4 1017.5 0.8
24/11:00pm 11.5 5.3 6.2 70 2.5 WSW 28 39 15 21 1017.4 1017.5 0.8
24/10:30pm 11.7 5.0 5.8 67 2.7 SW 30 41 16 22 1017.3 1017.4 0.8
24/10:00pm 12.1 4.2 6.2 67 2.8 WSW 37 52 20 28 1017.1 1017.2 0.8
24/09:30pm 12.1 3.6 5.3 63 3.1 WSW 39 48 21 26 1016.7 1016.8 0.8
24/09:00pm 12.2 4.4 6.5 68 2.7 WSW 37 48 20 26 1016.4 1016.5 0.8
24/08:30pm 11.9 4.1 6.6 70 2.5 WSW 37 54 20 29 1016.2 1016.3 0.8
24/08:00pm 11.8 2.9 6.7 71 2.4 WSW 43 57 23 31 1015.8 1015.9 0.8
24/07:51pm 12.1 5.2 6.6 69 2.6 WSW 32 52 17 28 1015.7 1015.8 0.8
24/07:30pm 11.9 3.7 6.4 69 2.6 W 39 50 21 27 1015.5 1015.6 0.8
24/07:00pm 11.6 4.6 6.7 72 2.3 WSW 33 44 18 24 1015.0 1015.1 0.8
24/06:30pm 11.1 3.8 7.2 77 1.9 WSW 35 57 19 31 1014.6 1014.7 0.8
24/06:16pm 12.3 3.6 5.9 65 3.0 WSW 41 59 22 32 1014.2 1014.3 0.6
24/06:00pm 12.2 3.9 6.0 66 2.9 WSW 39 50 21 27 1013.9 1014.0 0.6
24/05:35pm 11.7 4.7 7.0 73 2.2 W 33 56 18 30 1013.7 1013.8 0.6
24/05:30pm 11.3 4.4 6.6 73 2.2 W 32 46 17 25 1013.7 1013.8 0.6
24/05:20pm 12.0 3.8 6.7 70 2.5 W 39 57 21 31 1013.7 1013.8 0.6
24/05:00pm 12.3 3.5 5.7 64 3.1 WSW 41 56 22 30 1013.3 1013.4 0.6
24/04:50pm 12.2 3.5 6.0 66 2.9 W 41 59 22 32 1013.3 1013.4 0.6
24/04:30pm 12.3 4.1 6.4 67 2.8 WSW 39 56 21 30 1013.1 1013.2 0.6
24/04:00pm 12.3 3.3 6.4 67 2.8 WSW 43 56 23 30 1012.7 1012.8 0.6
24/03:32pm 11.2 2.7 7.1 76 2.0 WSW 41 59 22 32 1012.4 1012.5 0.6
24/03:30pm 11.2 2.3 6.9 75 2.0 WSW 43 59 23 32 1012.5 1012.6 0.4
24/03:00pm 12.0 3.0 7.1 72 2.4 WSW 44 59 24 32 1012.1 1012.2 0.4
24/02:30pm 12.5 3.6 6.8 68 2.7 W 43 59 23 32 1011.8 1011.8 0.4
24/02:00pm 12.6 5.3 7.3 70 2.6 W 35 57 19 31 1011.6 1011.6 0.4
24/01:30pm 11.9 3.8 6.8 71 2.4 W 39 61 21 33 1011.5 1011.5 0.4
24/01:03pm 10.8 2.8 7.3 79 1.7 W 39 57 21 31 1011.6 1011.6 0.4
24/01:00pm 10.7 2.2 7.0 78 1.8 W 41 57 22 31 1011.6 1011.6 0.4
24/12:30pm 11.4 3.1 6.3 71 2.4 W 39 56 21 30 1011.7 1011.7 0.0
24/12:01pm 12.7 3.9 5.6 62 3.3 W 41 59 22 32 1011.4 1011.4 0.0
24/12:00pm 12.5 3.7 5.7 63 3.2 W 41 54 22 29 1011.4 1011.4 0.0
24/11:30am 11.1 2.0 6.0 71 2.4 W 43 61 23 33 1011.5 1011.5 0.0
24/11:01am 11.7 3.8 6.2 69 2.6 W 37 56 20 30 1011.3 1011.3 0.0
24/11:00am 11.7 3.8 6.4 70 2.5 W 37 54 20 29 1011.2 1011.2 0.0
24/10:30am 11.8 4.3 6.1 68 2.7 W 35 52 19 28 1011.0 1011.0 0.0
24/10:00am 11.8 2.9 5.0 63 3.1 WSW 41 56 22 30 1010.5 1010.5 0.0
24/09:36am 11.2 2.6 6.3 72 2.3 WSW 41 61 22 33 1010.1 1010.1 0.0
24/09:30am 10.9 1.8 6.1 72 2.2 WSW 43 61 23 33 1010.0 1010.0 0.0
24/09:08am 11.4 2.2 5.5 67 2.7 W 43 61 23 33 1009.6 1009.6 0.0
24/09:00am 11.2 1.4 5.1 66 2.8 WSW 46 63 25 34 1009.5 1009.5 12.6
24/08:30am 11.2 2.3 6.7 74 2.1 WSW 43 65 23 35 1008.8 1008.8 12.6
24/08:05am 10.1 1.9 6.6 79 1.6 W 39 57 21 31 1008.6 1008.6 12.6
24/08:00am 10.4 1.7 5.8 73 2.1 W 41 57 22 31 1008.7 1008.7 12.2
24/07:30am 10.9 3.4 8.1 83 1.4 W 37 56 20 30 1008.3 1008.3 12.0
24/07:00am 10.0 3.5 8.8 92 0.6 W 33 52 18 28 1007.8 1007.8 11.2
24/06:41am 9.6 0.6 9.0 96 0.3 WSW 46 65 25 35 1007.8 1007.8 11.0
24/06:33am 9.7 3.1 8.5 92 0.6 W 33 65 18 35 1007.6 1007.6 10.6
24/06:31am 10.4 4.5 9.2 92 0.6 W 30 57 16 31 1007.5 1007.5 10.4
24/06:30am 10.2 4.7 9.0 92 0.6 W 28 41 15 22 1007.4 1007.4 10.4
24/06:04am 9.6 1.5 8.8 95 0.4 WSW 41 63 22 34 1007.8 1007.8 9.6
24/06:00am 9.9 1.5 9.1 95 0.4 WSW 43 59 23 32 1007.8 1007.8 9.2
24/05:37am 9.9 1.1 7.2 83 1.3 WNW 43 91 23 49 1007.2 1007.2 8.0
24/05:35am 10.2 1.2 6.5 78 1.7 NW 43 91 23 49 1007.5 1007.5 7.8
24/05:33am 11.8 3.5 7.9 77 1.9 NW 41 91 22 49 1007.3 1007.3 7.6
24/05:32am 12.6 5.3 8.9 78 1.9 NW 37 74 20 40 1007.0 1007.0 7.6
24/05:30am 12.3 5.5 9.1 81 1.6 NW 35 52 19 28 1006.5 1006.5 7.6
24/05:00am 11.4 3.9 8.1 80 1.6 NW 37 52 20 28 1007.0 1007.0 7.6
24/04:38am 11.9 4.6 8.7 81 1.6 NW 37 57 20 31 1007.3 1007.3 7.6
24/04:30am 11.7 3.8 8.0 78 1.8 NW 39 57 21 31 1007.2 1007.2 7.6
24/04:00am 11.1 3.2 9.5 90 0.8 WNW 41 69 22 37 1007.9 1007.9 7.6
24/03:53am 11.1 1.8 9.0 87 1.0 WNW 48 69 26 37 1008.2 1008.2 7.6
24/03:51am 11.1 2.0 8.3 83 1.4 WNW 46 69 25 37 1008.3 1008.3 7.4
24/03:30am 11.6 4.2 9.9 89 0.9 NW 39 57 21 31 1008.2 1008.2 7.2
24/03:00am 12.3 5.4 8.8 79 1.8 NW 35 52 19 28 1008.9 1008.9 6.6
24/02:49am 12.1 6.6 10.5 90 0.8 WNW 30 54 16 29 1009.1 1009.1 6.6
24/02:30am 12.1 6.6 11.9 99 0.1 WNW 32 46 17 25 1009.2 1009.2 6.6
24/02:00am 10.9 4.9 10.9 100 0.0 WNW 33 48 18 26 1010.0 1010.0 6.6
24/01:30am 10.2 6.1 10.2 100 0.0 NNW 22 39 12 21 1010.9 1010.9 6.0
24/01:00am 9.9 4.6 9.8 99 0.1 N 28 37 15 20 1010.7 1010.7 1.8
24/12:30am 9.7 4.8 8.3 91 0.7 N 24 35 13 19 1011.2 1011.2 1.4
24/12:00am 10.3 5.8 8.7 90 0.8 N 22 30 12 16 1011.9 1011.9 1.2
 
Date/Time
CST
Temp
°C
App
Temp
°C
Dew
Point
°C
Rel
Hum
%
Delta-T
°C
Wind Press
QNH
hPa
Press
MSL
hPa
Rain since
9am
mm
Dir  Spd
km/h
Gust
km/h
Spd
kts
Gust
kts
23/11:30pm 10.1 5.6 8.5 90 0.8 N 22 30 12 16 1012.7 1012.8 1.2
23/11:00pm 9.3 4.9 7.6 89 0.8 N 20 26 11 14 1013.2 1013.3 1.2
23/10:30pm 9.0 5.5 8.6 97 0.2 N 17 24 9 13 1013.6 1013.7 1.2
23/10:00pm 8.8 5.9 8.0 95 0.4 NNE 13 17 7 9 1013.8 1013.9 1.2
23/09:30pm 9.7 6.9 8.6 93 0.5 N 13 17 7 9 1014.2 1014.3 1.2
23/09:00pm 9.2 6.4 8.4 95 0.4 NNE 13 17 7 9 1014.5 1014.6 1.2
23/08:30pm 9.5 7.4 8.4 93 0.5 N 9 13 5 7 1014.7 1014.8 1.2
23/08:00pm 9.6 5.2 8.8 95 0.4 WNW 22 33 12 18 1015.1 1015.2 1.2
23/07:30pm 8.2 5.8 6.8 91 0.6 N 9 11 5 6 1015.1 1015.2 0.2
23/07:00pm 8.9 6.7 7.8 93 0.5 N 9 11 5 6 1015.1 1015.2 0.2
23/06:30pm 8.6 5.8 6.9 89 0.8 N 11 13 6 7 1015.2 1015.3 0.2
23/06:00pm 9.6 7.2 7.0 84 1.2 NNW 9 19 5 10 1015.1 1015.2 0.2
23/05:30pm 10.5 7.5 5.9 73 2.1 NW 11 13 6 7 1015.3 1015.4 0.2
23/05:00pm 10.8 8.0 5.3 69 2.5 WNW 9 11 5 6 1015.1 1015.2 0.2
23/04:30pm 11.8 9.1 5.4 65 3.0 W 9 13 5 7 1015.4 1015.5 0.2
23/04:00pm 12.3 9.0 4.8 60 3.4 W 11 15 6 8 1015.3 1015.4 0.2
23/03:30pm 12.5 9.3 5.0 60 3.5 W 11 17 6 9 1015.5 1015.6 0.2
23/03:00pm 13.1 9.1 5.0 58 3.7 W 15 20 8 11 1015.5 1015.6 0.2
23/02:30pm 13.0 9.1 5.4 60 3.5 W 15 22 8 12 1015.6 1015.7 0.2
23/02:00pm 13.1 9.3 6.0 62 3.4 W 15 20 8 11 1015.6 1015.7 0.2
23/01:30pm 13.0 9.3 6.1 63 3.3 WSW 15 19 8 10 1015.8 1015.9 0.2
23/01:00pm 12.3 8.6 6.1 66 2.9 W 15 22 8 12 1016.0 1016.1 0.2
23/12:30pm 12.5 7.8 6.1 65 3.0 SW 20 28 11 15 1016.3 1016.4 0.2
23/12:00pm 13.3 8.9 6.6 64 3.2 SW 19 22 10 12 1016.7 1016.8 0.2
23/11:30am 12.2 6.9 6.7 69 2.6 SW 24 33 13 18 1017.0 1017.1 0.0
23/11:00am 12.5 6.9 5.2 61 3.4 WSW 24 32 13 17 1017.1 1017.2 0.0
23/10:30am 12.4 7.0 6.2 66 2.9 SW 24 32 13 17 1016.8 1016.9 0.0
23/10:00am 11.7 6.5 5.6 66 2.8 SW 22 33 12 18 1016.4 1016.5 0.0
23/09:30am 11.9 6.5 6.2 68 2.7 SW 24 28 13 15 1016.2 1016.3 0.0
23/09:00am 10.9 5.5 6.3 73 2.2 SW 24 35 13 19 1015.9 1016.0 8.2
23/08:30am 10.9 5.4 6.1 72 2.2 SW 24 32 13 17 1015.4 1015.5 8.2
23/08:00am 10.7 5.0 4.8 67 2.7 WSW 24 33 13 18 1015.2 1015.3 8.2
23/07:30am 9.6 4.0 5.2 74 2.0 SSW 24 37 13 20 1014.9 1015.0 8.2
23/07:00am 10.5 5.1 6.3 75 2.0 SW 24 32 13 17 1014.6 1014.7 8.2
23/06:30am 10.8 5.1 6.7 76 1.9 SW 26 35 14 19 1014.4 1014.5 8.2
23/06:00am 10.3 4.8 7.4 82 1.4 SW 26 37 14 20 1014.0 1014.1 8.2
23/05:30am 10.7 4.4 7.6 81 1.5 SW 30 37 16 20 1013.5 1013.6 8.2
23/05:00am 10.3 4.4 7.4 82 1.4 SW 28 39 15 21 1013.2 1013.3 8.2
23/04:45am 11.0 4.4 7.7 80 1.6 SW 32 52 17 28 1013.0 1013.1 8.2
23/04:30am 10.7 4.8 7.6 81 1.5 SW 28 37 15 20 1012.7 1012.8 8.2
23/04:00am 10.7 4.6 8.3 85 1.2 SW 30 44 16 24 1012.4 1012.5 8.2
23/03:30am 9.7 3.4 7.6 87 1.0 SSW 30 52 16 28 1012.1 1012.2 8.2
23/03:27am 10.1 4.2 7.7 85 1.2 SSW 28 52 15 28 1012.2 1012.3 8.0
23/03:00am 11.1 4.4 8.1 82 1.5 SW 33 43 18 23 1011.7 1011.7 7.4
23/02:30am 11.3 5.0 9.0 86 1.1 SW 32 41 17 22 1011.3 1011.3 7.4
23/02:15am 11.4 5.7 9.7 89 0.9 SW 30 50 16 27 1011.0 1011.0 7.4
23/02:00am 11.1 4.5 8.5 84 1.3 WSW 33 46 18 25 1010.9 1010.9 7.4
23/01:37am 11.1 3.8 8.8 86 1.1 WSW 37 56 20 30 1010.5 1010.5 7.4
23/01:30am 11.7 3.9 8.4 80 1.6 WSW 39 56 21 30 1010.6 1010.6 7.0
23/01:00am 11.9 4.7 7.8 76 2.0 W 35 46 19 25 1010.3 1010.3 7.0
23/12:36am 12.4 4.1 7.7 73 2.3 WSW 41 61 22 33 1010.4 1010.4 7.0
23/12:30am 12.4 3.9 7.1 70 2.6 W 41 56 22 30 1010.2 1010.2 7.0
23/12:01am 12.0 5.9 8.3 78 1.8 W 30 50 16 27 1010.2 1010.2 7.0
23/12:00am 11.8 5.7 8.1 78 1.8 W 30 41 16 22 1010.1 1010.1 7.0
 
Date/Time
CST
Temp
°C
App
Temp
°C
Dew
Point
°C
Rel
Hum
%
Delta-T
°C
Wind Press
QNH
hPa
Press
MSL
hPa
Rain since
9am
mm
Dir  Spd
km/h
Gust
km/h
Spd
kts
Gust
kts
22/11:30pm 11.0 2.9 6.9 76 2.0 W 39 63 21 34 1010.3 1010.3 6.8
22/11:27pm 12.1 4.5 7.4 73 2.3 W 37 57 20 31 1010.2 1010.2 6.8
22/11:00pm 11.3 2.7 6.6 73 2.2 W 41 57 22 31 1009.8 1009.8 6.8
22/10:52pm 12.0 4.4 7.5 74 2.2 W 37 57 20 31 1009.9 1009.9 6.8
22/10:30pm 12.2 4.3 6.3 67 2.8 WSW 37 48 20 26 1009.4 1009.4 6.8
22/10:04pm 11.8 3.1 5.9 67 2.8 WSW 41 59 22 32 1009.3 1009.3 6.8
22/10:00pm 11.8 3.1 5.9 67 2.8 WSW 41 56 22 30 1009.3 1009.3 6.8
22/09:36pm 10.8 3.2 9.1 89 0.8 WSW 39 57 21 31 1008.8 1008.8 6.8
22/09:30pm 10.2 1.6 8.3 88 0.9 WSW 43 57 23 31 1008.7 1008.7 6.0
22/09:00pm 11.6 2.7 7.5 76 2.0 W 44 61 24 33 1008.3 1008.3 4.2
22/08:56pm 11.0 2.4 8.1 82 1.4 W 43 61 23 33 1008.3 1008.3 4.2
22/08:30pm 11.1 2.9 8.3 83 1.4 W 41 59 22 32 1008.2 1008.2 4.2
22/08:00pm 9.8 1.0 7.4 85 1.1 W 43 72 23 39 1008.0 1008.0 3.6
22/07:30pm 12.9 2.4 5.8 62 3.4 W 50 70 27 38 1006.7 1006.7 2.2
22/07:00pm 12.4 1.7 4.6 59 3.6 W 50 74 27 40 1006.7 1006.7 2.2
22/06:30pm 11.8 2.3 6.5 70 2.5 WNW 46 69 25 37 1006.0 1006.0 2.2
22/06:00pm 11.6 1.7 6.7 72 2.3 W 48 72 26 39 1005.6 1005.6 2.2
22/05:30pm 12.1 2.6 6.6 69 2.6 W 46 67 25 36 1004.9 1004.9 2.2
22/05:07pm 12.5 2.8 7.4 71 2.5 W 48 67 26 36 1004.6 1004.6 2.0
22/05:00pm 12.2 3.1 6.7 69 2.6 W 44 59 24 32 1004.5 1004.5 2.0
22/04:30pm 12.4 2.3 7.3 71 2.5 W 50 72 27 39 1004.4 1004.4 2.0
22/04:00pm 13.0 4.9 7.2 68 2.8 W 39 61 21 33 1003.8 1003.8 2.0
22/03:59pm 13.0 4.9 7.2 68 2.8 W 39 61 21 33 1003.8 1003.8 2.0
22/03:43pm 11.7 2.8 7.0 73 2.2 W 43 67 23 36 1003.8 1003.8 1.8
22/03:30pm 10.7 -0.7 7.4 80 1.6 W 57 83 31 45 1004.0 1004.0 1.8
22/03:25pm 12.1 1.8 6.6 69 2.6 W 50 82 27 44 1003.8 1003.8 1.8
22/03:00pm 13.0 5.4 8.9 76 2.1 W 39 61 21 33 1003.1 1003.1 1.8
22/02:30pm 11.9 1.9 9.5 85 1.2 W 52 74 28 40 1002.8 1002.8 1.8
22/02:00pm 12.0 4.2 9.7 86 1.2 W 41 61 22 33 1002.3 1002.3 1.8
22/01:54pm 11.8 4.5 10.2 90 0.8 WNW 39 61 21 33 1002.7 1002.7 1.8
22/01:30pm 13.0 4.7 10.0 82 1.6 WNW 44 57 24 31 1002.3 1002.3 0.8
22/01:00pm 12.1 2.7 8.9 81 1.6 WNW 48 72 26 39 1002.7 1002.7 0.6
22/12:32pm 14.4 7.0 10.0 75 2.3 WNW 39 57 21 31 1002.1 1002.1 0.4
22/12:30pm 14.5 6.3 9.7 73 2.5 WNW 43 57 23 31 1002.2 1002.2 0.4
22/12:13pm 14.7 6.5 10.5 76 2.2 WNW 44 65 24 35 1002.5 1002.5 0.4
22/12:00pm 14.5 7.1 11.3 81 1.7 NW 41 57 22 31 1002.6 1002.6 0.4
22/11:30am 14.2 6.9 10.2 77 2.1 WNW 39 52 21 28 1002.7 1002.7 0.2
22/11:00am 15.1 9.0 10.3 73 2.5 WNW 33 48 18 26 1002.8 1002.8 0.2
22/10:46am 14.8 9.7 10.6 76 2.2 WNW 28 48 15 26 1003.0 1003.0 0.2
22/10:30am 14.9 10.6 11.9 82 1.6 WNW 26 39 14 21 1003.0 1003.0 0.2
22/10:00am 14.4 9.8 11.2 81 1.7 W 26 39 14 21 1003.3 1003.3 0.2
22/09:30am 14.3 10.7 13.0 92 0.7 WNW 24 33 13 18 1003.1 1003.1 0.2
22/09:00am 13.3 7.8 12.0 92 0.7 NW 32 39 17 21 1003.5 1003.5 0.8
22/08:30am 14.1 9.6 11.3 83 1.5 WNW 26 33 14 18 1003.2 1003.2 0.8
22/08:00am 14.1 9.8 10.9 81 1.7 W 24 35 13 19 1003.5 1003.5 0.8
22/07:30am 13.9 10.5 11.1 83 1.5 W 20 32 11 17 1003.6 1003.6 0.8
22/07:00am 13.8 10.2 13.0 95 0.4 WNW 24 33 13 18 1003.5 1003.5 0.8
22/06:30am 14.7 10.6 11.3 80 1.8 WNW 24 33 13 18 1003.3 1003.3 0.0
22/06:00am 14.8 10.6 11.0 78 2.0 WNW 24 35 13 19 1003.5 1003.5 0.0

Other Formats:

Comma delimited format used in spreadsheet applications
http://www.bom.gov.au/fwo/IDS60801/IDS60801.94658.axf

JavaScript Object Notation format (JSON) in row-major order
http://www.bom.gov.au/fwo/IDS60801/IDS60801.94658.json